Aérodrome :
LOGIN :

S'inscrire | Disclaimer

   EN    FR    IT 

 










Légende :    VFR   VFR Marginal   IFR   IFR Intensif   IFR Très Intensif
Visi : 
Plafond : 
>= 8 km
>= 3000ft
5 à 8 km
1000 à 3000 ft
1500m à 5 km
500 à 1000 ft
800 à 1500m
200 à 500 ft
< 800m
< 200 ft
Symboles :   Orages  Brouillard  Fortes neiges  Fortes précipitations  Vent > 20 kt
SIGMETs :   Divers  Orages  Givrage  Turbulence  Onde Orograph.  Cendres Volcan.







- Altitude de l'aérodrome : 171 ft
- Code IATA : EGC
- Voir les cartes d'approche


LFBE - Bergerac

DERNIER METAR :
  • 170330Z AUTO 07003KT 3300 1100 R27/P2500 BR NSC 11/11 Q1021 TEMPO 0500 BCFG

METARs EXPIRÉS :
  • 170300Z AUTO 07004KT 3700 1600 BR NSC 10/10 Q1021 TEMPO 0500 BCFG
  • 170230Z AUTO 08004KT 1500 1000 R27/2200U BR NSC 11/10 Q1022 TEMPO 0500 BCFG
  • 170200Z AUTO 08003KT 1300 0900 R27/1900U BCFG NSC 11/10 Q1022 TEMPO 0500 BCFG
  • 170130Z AUTO 06003KT 1500 0750 R27/2500U BCFG NSC 11/11 Q1022 TEMPO 0500 BCFG
  • 170100Z AUTO 08003KT 3400 1100 R27/1500D BR NSC 12/11 Q1023 TEMPO 0500 BCFG

TAF AMD TAF LFBE
Valide du 17 à 01h jusqu'au 18 à 00h UTC


170107Z 1701/1724 14008KT CAVOK
TEMPO 1701/1708 3000 BR
PROB40
TEMPO 1701/1708 0500 BCFG
BECMG 1722/1724 BKN014
Pas de NOTAMs connus pour ce terrain.



MET'MAP, la Météo Aéronautique d'un coup d'oeil ! - Copyright ORBIFLY Décembre 2007 - Disclaimer

ORBIFLY MET'MAP TEAM :

Programmation & Développement : Alexandra Zaïnal
Conception & Développement : Baudouin d'Aumeries
Co-Programmation & Développement : Marc-Olivier Méhu
Soutien technique & logistique : Manuel Goepfert

Contact : metmap@orbifly.com




SOURCES & CREDITS :

   NOAA